createdAt,value
2023-04-07T00:00:41.823Z,15.38
2023-04-07T00:03:08.869Z,14.48
2023-04-07T00:05:35.943Z,14.60
2023-04-07T00:08:02.836Z,17.35
2023-04-07T00:10:29.802Z,15.32
2023-04-07T00:12:56.736Z,12.45
2023-04-07T00:15:23.741Z,17.27
2023-04-07T00:17:50.680Z,10.95
2023-04-07T00:20:17.753Z,14.90
2023-04-07T00:22:44.725Z,13.38
2023-04-07T00:25:11.760Z,11.82
2023-04-07T00:27:38.817Z,11.48
2023-04-07T00:30:07.160Z,11.32
2023-04-07T00:32:36.032Z,12.68
2023-04-07T00:35:03.659Z,13.95
2023-04-07T00:37:30.861Z,12.73
2023-04-07T00:39:59.300Z,12.25
2023-04-07T00:42:26.361Z,12.40
2023-04-07T00:44:53.223Z,11.40
2023-04-07T00:47:21.081Z,14.27
2023-04-07T00:49:48.216Z,14.07
2023-04-07T00:52:16.425Z,9.30
2023-04-07T00:54:44.964Z,12.93
2023-04-07T00:57:11.985Z,14.73
2023-04-07T00:59:39.084Z,11.88
2023-04-07T01:02:14.437Z,12.75
2023-04-07T01:04:52.160Z,13.20
2023-04-07T01:07:27.907Z,13.10
2023-04-07T01:10:07.040Z,8.85
2023-04-07T01:13:07.074Z,8.60
2023-04-07T01:15:35.339Z,10.48
2023-04-07T01:18:13.951Z,8.75
2023-04-07T01:20:43.831Z,10.77
2023-04-07T01:23:23.547Z,10.30
2023-04-07T01:26:08.474Z,9.43
2023-04-07T01:29:11.739Z,9.60
2023-04-07T01:31:41.658Z,17.05
2023-04-07T01:34:12.273Z,11.52
2023-04-07T01:36:39.505Z,12.40
2023-04-07T01:39:07.502Z,11.52
2023-04-07T01:41:35.531Z,11.48
2023-04-07T01:44:04.238Z,9.32
2023-04-07T01:46:31.383Z,14.30
2023-04-07T01:48:59.062Z,8.65
2023-04-07T01:51:27.483Z,12.60
2023-04-07T01:53:54.883Z,9.60
2023-04-07T01:56:22.019Z,10.48
2023-04-07T01:58:51.834Z,12.98
2023-04-07T02:01:21.594Z,10.15
2023-04-07T02:04:26.134Z,10.98
2023-04-07T02:07:04.206Z,12.63
2023-04-07T02:09:40.299Z,9.38
2023-04-07T02:12:10.390Z,9.00
2023-04-07T02:14:41.329Z,9.57
2023-04-07T02:17:11.944Z,9.23
2023-04-07T02:19:39.476Z,10.07
2023-04-07T02:22:07.552Z,10.93
2023-04-07T02:24:34.463Z,9.20
2023-04-07T02:27:02.135Z,12.55
2023-04-07T02:29:29.184Z,10.82
2023-04-07T02:31:56.562Z,10.07
2023-04-07T02:34:23.680Z,10.50
2023-04-07T02:36:50.806Z,11.57
2023-04-07T02:39:17.761Z,8.85
2023-04-07T02:41:44.813Z,10.65
2023-04-07T02:44:11.655Z,10.32
2023-04-07T02:46:38.690Z,9.77
2023-04-07T02:49:05.650Z,9.40
2023-04-07T02:51:32.682Z,9.27
2023-04-07T02:53:59.755Z,11.00
2023-04-07T02:56:26.919Z,9.90
2023-04-07T02:58:53.986Z,12.50
2023-04-07T03:01:21.438Z,12.15
2023-04-07T03:03:48.525Z,9.20
2023-04-07T03:06:20.225Z,13.95
2023-04-07T03:08:58.344Z,9.00
2023-04-07T03:11:26.114Z,12.70
2023-04-07T03:13:53.517Z,9.90
2023-04-07T03:16:21.018Z,8.73
2023-04-07T03:19:11.411Z,10.63
2023-04-07T03:21:42.817Z,8.40
2023-04-07T03:24:10.166Z,10.40
2023-04-07T03:26:37.277Z,10.43
2023-04-07T03:29:07.038Z,8.10
2023-04-07T03:31:34.192Z,11.40
2023-04-07T03:34:01.344Z,10.32
2023-04-07T03:36:28.655Z,10.38
2023-04-07T03:38:58.955Z,11.73
2023-04-07T03:41:26.546Z,9.73
2023-04-07T03:43:53.817Z,11.38
2023-04-07T03:46:22.114Z,12.85
2023-04-07T03:48:49.265Z,13.27
2023-04-07T03:51:17.235Z,9.18
2023-04-07T03:53:46.491Z,8.60
2023-04-07T03:56:37.299Z,9.70
2023-04-07T03:59:04.601Z,9.50
2023-04-07T04:01:36.442Z,10.23
2023-04-07T04:04:21.898Z,10.80
2023-04-07T04:06:49.541Z,10.50
2023-04-07T04:09:33.354Z,10.20
2023-04-07T04:12:01.138Z,9.48
2023-04-07T04:14:29.462Z,10.80
2023-04-07T04:17:00.701Z,9.35
2023-04-07T04:19:34.814Z,11.77
2023-04-07T04:22:07.609Z,11.57
2023-04-07T04:24:41.934Z,10.70
2023-04-07T04:27:09.268Z,11.38
2023-04-07T04:29:36.801Z,10.00
2023-04-07T04:32:06.432Z,10.75
2023-04-07T04:34:33.618Z,12.43
2023-04-07T04:37:01.078Z,9.73
2023-04-07T04:39:28.187Z,10.32
2023-04-07T04:41:56.747Z,10.93
2023-04-07T04:44:31.395Z,9.07
2023-04-07T04:46:59.087Z,10.27
2023-04-07T04:49:26.355Z,8.75
2023-04-07T04:51:56.019Z,10.32
2023-04-07T04:54:23.860Z,12.15
2023-04-07T04:56:51.139Z,9.52
2023-04-07T04:59:18.687Z,12.18
2023-04-07T05:01:56.161Z,10.10
2023-04-07T05:04:23.487Z,10.32
2023-04-07T05:06:59.160Z,11.02
2023-04-07T05:09:28.755Z,10.45
2023-04-07T05:11:55.923Z,9.88
2023-04-07T05:14:23.796Z,10.82
2023-04-07T05:16:57.185Z,8.55
2023-04-07T05:19:29.973Z,10.40
2023-04-07T05:22:03.753Z,8.90
2023-04-07T05:24:35.507Z,8.20
2023-04-07T05:27:02.754Z,12.43
2023-04-07T05:29:31.611Z,8.48
2023-04-07T05:31:58.962Z,10.45
2023-04-07T05:34:27.328Z,11.35
2023-04-07T05:36:56.444Z,9.95
2023-04-07T05:39:23.835Z,8.95
2023-04-07T05:41:54.086Z,12.43
2023-04-07T05:44:25.263Z,13.23
2023-04-07T05:46:52.442Z,12.60
2023-04-07T05:49:22.044Z,13.20
2023-04-07T05:51:56.755Z,12.75
2023-04-07T05:54:24.625Z,11.10
2023-04-07T05:56:52.812Z,11.48
2023-04-07T05:59:21.260Z,13.32
2023-04-07T06:01:49.714Z,11.25
2023-04-07T06:04:16.953Z,10.55
2023-04-07T06:06:45.466Z,12.68
2023-04-07T06:09:12.420Z,13.45
2023-04-07T06:11:39.473Z,10.80
2023-04-07T06:14:06.577Z,14.00
2023-04-07T06:16:34.704Z,13.50
2023-04-07T06:19:01.766Z,12.55
2023-04-07T06:21:31.535Z,11.30
2023-04-07T06:23:59.096Z,12.45
2023-04-07T06:26:28.284Z,14.73
2023-04-07T06:28:56.002Z,14.05
2023-04-07T06:31:22.930Z,14.82
2023-04-07T06:33:52.451Z,12.60
2023-04-07T06:36:19.538Z,13.05
2023-04-07T06:38:47.192Z,12.38
2023-04-07T06:41:17.141Z,11.07
2023-04-07T06:43:51.140Z,16.13
2023-04-07T06:46:19.628Z,12.18
2023-04-07T06:48:47.408Z,10.73
2023-04-07T06:51:14.434Z,12.00
2023-04-07T06:53:41.858Z,10.60
2023-04-07T06:56:12.107Z,14.07
2023-04-07T06:58:39.233Z,11.73
2023-04-07T07:01:06.665Z,11.00
2023-04-07T07:03:33.798Z,12.07
2023-04-07T07:06:05.508Z,12.55
2023-04-07T07:08:32.604Z,14.30
2023-04-07T07:10:59.784Z,13.07
2023-04-07T07:13:28.119Z,11.65
2023-04-07T07:15:55.681Z,10.27
2023-04-07T07:18:22.741Z,11.15
2023-04-07T07:20:50.596Z,11.10
2023-04-07T07:23:17.680Z,11.18
2023-04-07T07:25:45.325Z,12.95
2023-04-07T07:28:12.403Z,13.90
2023-04-07T07:30:43.333Z,11.13
2023-04-07T07:33:10.412Z,10.20
2023-04-07T07:35:37.948Z,10.85
2023-04-07T07:38:04.997Z,10.32
2023-04-07T07:40:32.193Z,11.75
2023-04-07T07:43:00.622Z,10.93
2023-04-07T07:45:27.633Z,13.70
2023-04-07T07:47:54.782Z,9.93
2023-04-07T07:50:22.609Z,10.68
2023-04-07T07:52:49.669Z,13.90
2023-04-07T07:55:16.690Z,12.57
2023-04-07T07:57:43.723Z,8.15
2023-04-07T08:00:11.967Z,10.85
2023-04-07T08:02:41.664Z,7.32
2023-04-07T08:05:09.007Z,9.35
2023-04-07T08:07:36.542Z,9.15
2023-04-07T08:10:03.743Z,6.22
2023-04-07T08:12:31.048Z,7.68
2023-04-07T08:14:58.000Z,7.65
2023-04-07T08:17:25.075Z,9.63
2023-04-07T08:19:52.105Z,7.25
2023-04-07T08:22:21.019Z,9.15
2023-04-07T08:24:48.165Z,8.52
2023-04-07T08:27:15.314Z,10.07
2023-04-07T08:29:42.301Z,8.63
2023-04-07T08:32:09.176Z,7.82
2023-04-07T08:34:36.154Z,6.75
2023-04-07T08:37:03.397Z,7.47
2023-04-07T08:39:30.341Z,5.68
2023-04-07T08:41:58.386Z,7.90
2023-04-07T08:44:28.485Z,9.55
2023-04-07T08:46:58.849Z,8.60
2023-04-07T08:49:29.654Z,8.30
2023-04-07T08:51:58.587Z,9.38
2023-04-07T08:54:26.268Z,7.75
2023-04-07T08:56:53.527Z,10.70
2023-04-07T08:59:26.599Z,7.25
2023-04-07T09:01:54.918Z,6.57
2023-04-07T09:04:27.443Z,8.23
2023-04-07T09:06:54.902Z,6.65
2023-04-07T09:09:22.132Z,7.50
2023-04-07T09:11:49.265Z,4.35
2023-04-07T09:14:18.544Z,9.77
2023-04-07T09:16:45.774Z,6.25
2023-04-07T09:19:12.666Z,5.72
2023-04-07T09:21:53.206Z,8.63
2023-04-07T09:24:28.865Z,7.18
2023-04-07T09:27:16.937Z,12.70
2023-04-07T09:29:46.764Z,9.23
2023-04-07T09:32:39.692Z,6.28
2023-04-07T09:35:08.018Z,7.30
2023-04-07T09:37:35.627Z,6.38
2023-04-07T09:40:03.015Z,6.88
2023-04-07T09:42:32.524Z,5.25
2023-04-07T09:45:00.766Z,4.15
2023-04-07T09:47:33.235Z,4.63
2023-04-07T09:50:06.834Z,5.65
2023-04-07T09:52:53.051Z,5.45
2023-04-07T09:55:22.814Z,5.35
2023-04-07T09:57:57.113Z,7.82
2023-04-07T10:00:25.490Z,4.85
2023-04-07T10:02:53.172Z,7.10
2023-04-07T10:05:23.853Z,5.90
2023-04-07T10:07:51.479Z,19.40
2023-04-07T10:10:18.671Z,5.25
2023-04-07T10:12:46.206Z,4.88
2023-04-07T10:15:17.208Z,7.43
2023-04-07T10:17:48.624Z,4.10
2023-04-07T10:20:23.269Z,4.57
2023-04-07T10:22:53.627Z,5.88
2023-04-07T10:25:24.494Z,6.85
2023-04-07T10:28:05.073Z,4.55
2023-04-07T10:30:33.816Z,6.05
2023-04-07T10:33:01.121Z,3.22
2023-04-07T10:35:29.849Z,5.28
2023-04-07T10:38:13.673Z,5.22
2023-04-07T10:40:42.783Z,3.75
2023-04-07T10:43:15.027Z,10.50
2023-04-07T10:45:57.840Z,7.30
2023-04-07T10:48:25.903Z,5.97
2023-04-07T10:51:05.197Z,4.38
2023-04-07T10:53:32.610Z,5.70
2023-04-07T10:55:59.589Z,5.80
2023-04-07T10:58:31.617Z,6.05
2023-04-07T11:01:07.699Z,4.53
2023-04-07T11:03:38.214Z,5.28
2023-04-07T11:06:08.437Z,6.72
2023-04-07T11:08:45.183Z,7.10
2023-04-07T11:11:38.848Z,11.02
2023-04-07T11:14:06.273Z,9.38
2023-04-07T11:16:43.212Z,6.55
2023-04-07T11:19:10.752Z,4.90
2023-04-07T11:21:38.212Z,8.45
2023-04-07T11:24:05.713Z,6.88
2023-04-07T11:26:39.659Z,7.45
2023-04-07T11:29:08.090Z,6.13
2023-04-07T11:31:35.806Z,6.65
2023-04-07T11:34:05.570Z,7.03
2023-04-07T11:36:41.139Z,7.40
2023-04-07T11:39:22.224Z,6.63
2023-04-07T11:41:51.225Z,11.23
2023-04-07T11:44:18.877Z,8.00
2023-04-07T11:47:00.094Z,10.32
2023-04-07T11:49:28.763Z,11.90
2023-04-07T11:52:09.351Z,13.88
2023-04-07T11:54:51.328Z,13.55
2023-04-07T11:57:29.219Z,10.90
2023-04-07T12:00:11.516Z,13.15
2023-04-07T12:02:39.384Z,10.63
2023-04-07T12:05:07.457Z,11.80
2023-04-07T12:07:34.656Z,10.52
2023-04-07T12:10:23.017Z,11.25
2023-04-07T12:12:50.022Z,9.57
2023-04-07T12:15:17.171Z,9.95
2023-04-07T12:17:48.636Z,9.07
2023-04-07T12:20:16.758Z,8.85
2023-04-07T12:22:43.721Z,8.93
2023-04-07T12:25:10.844Z,8.73
2023-04-07T12:27:43.419Z,9.15
2023-04-07T12:30:13.424Z,8.88
2023-04-07T12:32:41.067Z,9.82
2023-04-07T12:35:08.175Z,11.85
2023-04-07T12:37:35.741Z,11.90
2023-04-07T12:40:03.093Z,10.70
2023-04-07T12:42:30.019Z,28.48
2023-04-07T12:44:57.029Z,17.60
2023-04-07T12:47:24.271Z,16.00
2023-04-07T12:49:51.525Z,13.82
2023-04-07T12:52:18.608Z,41.90
2023-04-07T12:54:45.679Z,17.40
2023-04-07T12:57:12.990Z,15.68
2023-04-07T12:59:39.863Z,13.70
2023-04-07T13:02:07.524Z,10.65
2023-04-07T13:04:35.218Z,8.77
2023-04-07T13:07:03.218Z,11.48
2023-04-07T13:09:30.188Z,9.85
2023-04-07T13:11:57.792Z,6.15
2023-04-07T13:14:25.168Z,6.78
2023-04-07T13:16:52.719Z,5.65
2023-04-07T13:19:19.840Z,27.55
2023-04-07T13:21:48.143Z,10.77
2023-04-07T13:24:15.812Z,8.57
2023-04-07T13:26:42.830Z,5.78
2023-04-07T13:29:09.709Z,5.38
2023-04-07T13:31:36.743Z,5.28
2023-04-07T13:34:03.944Z,4.93
2023-04-07T13:36:31.095Z,4.57
2023-04-07T13:38:58.066Z,4.05
2023-04-07T13:41:25.053Z,4.18
2023-04-07T13:43:52.237Z,5.78
2023-04-07T13:48:49.358Z,4.15
2023-04-07T13:51:16.997Z,4.55
2023-04-07T13:53:44.016Z,4.25
2023-04-07T13:56:11.090Z,7.07
2023-04-07T13:58:38.129Z,5.78
2023-04-07T14:01:05.143Z,6.18
2023-04-07T14:03:32.819Z,7.03
2023-04-07T14:06:01.129Z,5.28
2023-04-07T14:08:28.585Z,4.70
2023-04-07T14:10:55.689Z,6.70
2023-04-07T14:13:23.144Z,7.25
2023-04-07T14:15:50.476Z,4.18
2023-04-07T14:18:17.764Z,5.30
2023-04-07T14:20:45.383Z,5.50
2023-04-07T14:23:13.091Z,7.05
2023-04-07T14:25:42.025Z,8.95
2023-04-07T14:28:09.465Z,7.97
2023-04-07T14:30:38.732Z,5.50
2023-04-07T14:33:05.890Z,6.07
2023-04-07T14:35:33.066Z,5.32
2023-04-07T14:38:00.340Z,4.78
2023-04-07T14:40:27.306Z,4.75
2023-04-07T14:43:07.015Z,5.43
2023-04-07T14:45:35.646Z,5.97
2023-04-07T14:48:02.886Z,4.55
2023-04-07T14:50:33.685Z,6.20
2023-04-07T14:53:01.283Z,3.80
2023-04-07T14:55:28.268Z,4.38
2023-04-07T14:57:55.369Z,3.70
2023-04-07T15:00:22.700Z,4.05
2023-04-07T15:02:49.882Z,3.55
2023-04-07T15:05:17.189Z,5.47
2023-04-07T15:07:45.811Z,3.47
2023-04-07T15:10:12.725Z,4.50
2023-04-07T15:12:39.656Z,7.10
2023-04-07T15:15:07.007Z,6.47
2023-04-07T15:17:43.202Z,4.68
2023-04-07T15:20:12.731Z,3.72
2023-04-07T15:22:40.110Z,5.80
2023-04-07T15:25:07.898Z,3.80
2023-04-07T15:27:35.234Z,5.50
2023-04-07T15:30:02.409Z,6.18
2023-04-07T15:32:31.914Z,5.22
2023-04-07T15:34:59.191Z,4.35
2023-04-07T15:37:26.707Z,5.13
2023-04-07T15:39:53.761Z,4.32
2023-04-07T15:42:20.814Z,6.65
2023-04-07T15:44:47.839Z,5.07
2023-04-07T15:47:14.848Z,6.82
2023-04-07T15:49:42.248Z,6.45
2023-04-07T15:52:09.328Z,6.35
2023-04-07T15:54:36.188Z,4.93
2023-04-07T15:57:03.438Z,5.30
2023-04-07T15:59:30.970Z,6.07
2023-04-07T16:01:58.646Z,4.20
2023-04-07T16:04:25.626Z,8.43
2023-04-07T16:06:52.611Z,5.72
2023-04-07T16:09:19.424Z,5.35
2023-04-07T16:11:46.564Z,5.95
2023-04-07T16:14:13.640Z,5.45
2023-04-07T16:16:41.461Z,6.18
2023-04-07T16:19:08.746Z,5.72
2023-04-07T16:21:35.901Z,6.50
2023-04-07T16:24:02.844Z,5.53
2023-04-07T16:26:30.274Z,4.93
2023-04-07T16:28:57.217Z,4.47
2023-04-07T16:31:24.215Z,7.13
2023-04-07T16:33:51.610Z,5.95
2023-04-07T16:36:18.698Z,7.70
2023-04-07T16:38:45.757Z,4.20
2023-04-07T16:41:12.761Z,4.05
2023-04-07T16:43:39.738Z,5.32
2023-04-07T16:46:06.728Z,6.28
2023-04-07T16:48:33.953Z,5.43
2023-04-07T16:51:00.862Z,6.53
2023-04-07T16:53:27.765Z,5.20
2023-04-07T16:55:55.273Z,5.30
2023-04-07T16:58:22.325Z,8.32
2023-04-07T17:00:49.355Z,5.32
2023-04-07T17:03:16.865Z,6.60
2023-04-07T17:05:47.100Z,5.63
2023-04-07T17:08:14.223Z,6.18
2023-04-07T17:10:41.188Z,4.03
2023-04-07T17:13:08.444Z,6.78
2023-04-07T17:15:38.034Z,5.07
2023-04-07T17:18:05.085Z,3.80
2023-04-07T17:20:32.088Z,4.80
2023-04-07T17:22:59.119Z,4.10
2023-04-07T17:25:26.243Z,5.20
2023-04-07T17:27:55.020Z,5.25
2023-04-07T17:30:22.421Z,5.20
2023-04-07T17:32:53.356Z,9.98
2023-04-07T17:35:21.069Z,7.43
2023-04-07T17:37:48.609Z,6.20
2023-04-07T17:40:15.749Z,4.15
2023-04-07T17:42:42.942Z,4.90
2023-04-07T17:45:10.867Z,4.00
2023-04-07T17:47:39.121Z,3.72
2023-04-07T17:50:07.341Z,4.03
2023-04-07T17:52:34.456Z,3.63
2023-04-07T17:55:01.597Z,4.30
2023-04-07T17:57:29.065Z,3.92
2023-04-07T17:59:55.979Z,3.67
2023-04-07T18:02:23.256Z,3.33
2023-04-07T18:04:50.580Z,5.85
2023-04-07T18:07:17.827Z,4.15
2023-04-07T18:09:44.886Z,4.43
2023-04-07T18:12:12.198Z,4.57
2023-04-07T18:14:39.379Z,4.55
2023-04-07T18:17:06.395Z,3.60
2023-04-07T18:19:33.884Z,4.38
2023-04-07T18:22:01.088Z,5.93
2023-04-07T18:24:28.276Z,3.22
2023-04-07T18:26:56.651Z,3.85
2023-04-07T18:29:23.614Z,2.78
2023-04-07T18:31:50.759Z,3.33
2023-04-07T18:34:17.866Z,4.40
2023-04-07T18:36:44.918Z,3.30
2023-04-07T18:39:11.998Z,3.58
2023-04-07T18:41:46.239Z,3.70
2023-04-07T18:44:14.394Z,3.60
2023-04-07T18:46:41.445Z,3.83
2023-04-07T18:49:08.641Z,4.00
2023-04-07T18:51:35.937Z,2.80
2023-04-07T18:54:02.817Z,2.92
2023-04-07T18:56:31.720Z,3.35
2023-04-07T18:58:58.798Z,3.42
2023-04-07T19:01:27.252Z,3.10
2023-04-07T19:03:54.461Z,3.63
2023-04-07T19:06:21.606Z,2.97
2023-04-07T19:08:49.832Z,3.45
2023-04-07T19:11:17.662Z,3.40
2023-04-07T19:13:44.923Z,3.30
2023-04-07T19:16:12.043Z,3.67
2023-04-07T19:18:39.008Z,3.22
2023-04-07T19:21:06.304Z,3.22
2023-04-07T19:23:33.370Z,3.42
2023-04-07T19:26:00.987Z,6.30
2023-04-07T19:28:28.066Z,3.15
2023-04-07T19:30:55.110Z,5.07
2023-04-07T19:33:22.120Z,2.78
2023-04-07T19:35:49.206Z,3.10
2023-04-07T19:38:16.439Z,3.72
2023-04-07T19:40:43.434Z,3.75
2023-04-07T19:43:10.653Z,4.22
2023-04-07T19:45:37.682Z,3.70
2023-04-07T19:48:04.889Z,3.35
2023-04-07T19:50:31.872Z,4.60
2023-04-07T19:52:58.900Z,3.45
2023-04-07T19:55:26.160Z,4.43
2023-04-07T19:57:53.310Z,3.70
2023-04-07T20:00:20.615Z,5.47
2023-04-07T20:02:50.721Z,4.82
2023-04-07T20:05:19.326Z,4.10
2023-04-07T20:07:46.935Z,4.30
2023-04-07T20:10:13.965Z,5.25
2023-04-07T20:12:41.045Z,5.75
2023-04-07T20:15:08.830Z,6.07
2023-04-07T20:17:37.152Z,5.65
2023-04-07T20:20:06.063Z,5.75
2023-04-07T20:22:34.921Z,5.22
2023-04-07T20:25:05.523Z,6.00
2023-04-07T20:27:33.608Z,7.45
2023-04-07T20:30:01.990Z,7.60
2023-04-07T20:32:29.299Z,4.75
2023-04-07T20:34:56.332Z,7.18
2023-04-07T20:37:26.100Z,7.53
2023-04-07T20:39:55.550Z,6.57
2023-04-07T20:42:22.826Z,8.32
2023-04-07T20:44:49.861Z,6.32
2023-04-07T20:47:16.892Z,5.35
2023-04-07T20:49:43.982Z,6.10
2023-04-07T20:52:10.920Z,6.53
2023-04-07T20:54:38.150Z,6.75
2023-04-07T20:57:05.036Z,7.20
2023-04-07T20:59:32.768Z,6.40
2023-04-07T21:01:59.895Z,6.68
2023-04-07T21:04:27.343Z,6.43
2023-04-07T21:06:54.521Z,6.72
2023-04-07T21:09:21.783Z,7.75
2023-04-07T21:11:48.862Z,6.82
2023-04-07T21:14:15.842Z,6.43
2023-04-07T21:16:43.564Z,9.15
2023-04-07T21:19:11.041Z,8.43
2023-04-07T21:21:38.119Z,8.27
2023-04-07T21:24:05.325Z,8.85
2023-04-07T21:26:32.554Z,7.15
2023-04-07T21:28:59.516Z,8.75
2023-04-07T21:31:26.852Z,8.93
2023-04-07T21:33:53.887Z,7.22
2023-04-07T21:36:21.262Z,8.20
2023-04-07T21:38:48.426Z,8.13
2023-04-07T21:41:15.452Z,9.95
2023-04-07T21:43:42.528Z,12.68
2023-04-07T21:46:09.432Z,9.32
2023-04-07T21:48:36.699Z,12.45
2023-04-07T21:51:04.111Z,8.70
2023-04-07T21:53:31.925Z,9.05
2023-04-07T21:55:58.898Z,10.07
2023-04-07T21:58:26.338Z,7.45
2023-04-07T22:00:54.374Z,8.18
2023-04-07T22:03:21.986Z,9.07
2023-04-07T22:05:49.419Z,9.43
2023-04-07T22:08:17.010Z,8.95
2023-04-07T22:10:44.075Z,8.63
2023-04-07T22:13:11.005Z,8.30
2023-04-07T22:15:38.094Z,12.32
2023-04-07T22:18:05.811Z,7.97
2023-04-07T22:20:32.675Z,9.10
2023-04-07T22:23:00.178Z,8.20
2023-04-07T22:25:27.291Z,10.75
2023-04-07T22:27:54.215Z,8.95
2023-04-07T22:30:21.327Z,9.93
2023-04-07T22:32:48.414Z,8.75
2023-04-07T22:35:15.634Z,8.02
2023-04-07T22:37:42.546Z,9.63
2023-04-07T22:40:10.405Z,9.13
2023-04-07T22:42:38.073Z,7.60
2023-04-07T22:45:05.727Z,8.18
2023-04-07T22:47:33.183Z,8.80
2023-04-07T22:50:00.533Z,8.18
2023-04-07T22:52:27.500Z,7.45
2023-04-07T22:54:54.362Z,9.55
2023-04-07T22:57:21.628Z,9.07
2023-04-07T22:59:48.498Z,12.30
2023-04-07T23:02:18.449Z,8.50
2023-04-07T23:04:45.855Z,8.43
2023-04-07T23:07:12.910Z,8.63
2023-04-07T23:09:40.191Z,8.38
2023-04-07T23:12:07.415Z,9.43
2023-04-07T23:14:34.582Z,7.50
2023-04-07T23:17:01.687Z,10.20
2023-04-07T23:19:31.201Z,7.65
2023-04-07T23:21:59.093Z,8.80
2023-04-07T23:24:27.667Z,8.90
2023-04-07T23:26:59.149Z,10.85
2023-04-07T23:29:27.243Z,9.02
2023-04-07T23:31:54.267Z,7.65
2023-04-07T23:34:21.531Z,9.25
2023-04-07T23:36:48.529Z,9.38
2023-04-07T23:39:15.864Z,8.45
2023-04-07T23:41:43.013Z,7.88
2023-04-07T23:44:09.886Z,9.23
2023-04-07T23:46:36.945Z,14.57
2023-04-07T23:49:04.016Z,12.90
2023-04-07T23:51:31.630Z,8.93
2023-04-07T23:53:58.746Z,9.15
2023-04-07T23:56:25.602Z,9.50
2023-04-07T23:58:52.545Z,11.38
